LFJA weather

Chaumont-Semoutiers Airport
Chaumont/Semoutiers, Champagne-Ardenne, France

Public forecast

Using degrees Celsius for public forecast. Weather courtesy of forecast.io.

METAR (pilot weather report)

Closest report is Saint-Dizier-Robinson (BA 113) Air Base, 33.5 nm (62.1 km) N. Retrieved 2019/09/23 18:30 UTC (8 minutes ago):

LFSI 231830Z AUTO 13002KT CAVOK 14/10 Q1017

TAF (pilot weather forecast)

Closest forecast is Saint-Dizier-Robinson (BA 113) Air Base, 33.5 nm (62.1 km) N. Retrieved 2019/09/23 15:21 UTC (3 hours ago):

TAF LFSI 231400Z 2315/2415 23007KT 9999 FEW030 SCT050